Time;durP1;ratioP1;P1;durP2;ratioP2;P2;SDS_P1;SDS_P2;PMS_P1;PMS_P2;Temp;Humidity;BMP_temperature;BMP_pressure;BME280_temperature;BME280_humidity;BME280_pressure;Samples;Min_cycle;Max_cycle;Signal;HPM_P1;HPM_P2
2023/04/14 00:00:34;;;;;;;1.60;1.10;;;19.40;60.30;;;;;;5090803;28;20220;-58
2023/04/14 00:03:06;;;;;;;1.65;1.10;;;19.40;60.40;;;;;;5090177;28;20674;-58
2023/04/14 00:05:37;;;;;;;2.83;1.15;;;19.40;60.30;;;;;;5084206;28;20222;-59
2023/04/14 00:08:08;;;;;;;2.15;1.25;;;19.50;60.40;;;;;;5089148;28;20198;-58
2023/04/14 00:10:38;;;;;;;1.38;1.00;;;19.50;60.40;;;;;;5090561;28;20198;-58
2023/04/14 00:13:09;;;;;;;2.22;1.25;;;19.50;60.40;;;;;;5090919;28;20443;-58
2023/04/14 00:15:43;;;;;;;1.75;1.17;;;19.50;60.30;;;;;;5076072;28;20202;-59
2023/04/14 00:18:13;;;;;;;1.60;1.00;;;19.50;60.40;;;;;;5090103;28;20218;-59
2023/04/14 00:20:44;;;;;;;1.83;1.20;;;19.50;60.30;;;;;;5090704;28;20198;-58
2023/04/14 00:23:15;;;;;;;1.85;1.00;;;19.60;60.40;;;;;;5081668;28;20226;-59
2023/04/14 00:25:45;;;;;;;1.48;1.05;;;19.60;60.30;;;;;;5108905;28;20193;-59
2023/04/14 00:28:16;;;;;;;1.23;0.90;;;19.60;60.30;;;;;;5098020;28;20186;-58
2023/04/14 00:30:48;;;;;;;1.27;0.88;;;19.60;60.40;;;;;;5072335;28;20195;-58
2023/04/14 00:33:19;;;;;;;1.33;1.00;;;19.60;60.40;;;;;;5077577;28;20210;-58
2023/04/14 00:35:50;;;;;;;1.30;0.93;;;19.60;60.50;;;;;;5072145;28;20655;-58
2023/04/14 00:38:20;;;;;;;2.33;1.00;;;19.60;60.60;;;;;;5085839;28;20198;-58
2023/04/14 00:40:51;;;;;;;1.88;1.10;;;19.60;60.60;;;;;;5089858;28;20205;-59
2023/04/14 00:43:22;;;;;;;1.98;1.10;;;19.60;60.60;;;;;;5097947;28;20225;-58
2023/04/14 00:45:54;;;;;;;0.82;0.65;;;19.70;60.60;;;;;;5090498;28;20202;-59
2023/04/14 00:48:25;;;;;;;1.38;0.90;;;19.70;60.50;;;;;;5078347;28;20186;-59
2023/04/14 00:50:56;;;;;;;1.40;1.05;;;19.70;60.50;;;;;;5080597;28;20629;-58
2023/04/14 00:53:26;;;;;;;1.55;0.85;;;19.80;60.60;;;;;;5078268;28;20218;-58
2023/04/14 00:55:57;;;;;;;0.95;0.65;;;19.80;60.50;;;;;;5070573;28;20226;-58
2023/04/14 00:58:29;;;;;;;1.42;0.90;;;19.80;60.50;;;;;;5074301;28;20195;-58
2023/04/14 01:01:01;;;;;;;1.88;1.08;;;19.80;60.50;;;;;;5090354;28;20654;-58
2023/04/14 01:03:32;;;;;;;0.90;0.75;;;19.80;60.40;;;;;;5090599;28;20218;-58
2023/04/14 01:06:02;;;;;;;1.35;1.00;;;19.80;60.40;;;;;;5078076;28;20566;-58
2023/04/14 01:08:33;;;;;;;2.42;1.10;;;19.80;60.40;;;;;;5077321;28;20195;-58
2023/04/14 01:11:11;;;;;;;2.05;0.88;;;19.80;60.40;;;;;;5089781;28;20654;-58
2023/04/14 01:13:51;;;;;;;0.90;0.90;;;19.90;60.50;;;;;;5089416;28;20210;-58
2023/04/14 01:16:30;;;;;;;1.55;0.90;;;19.90;60.50;;;;;;5088481;28;20194;-58
2023/04/14 01:19:08;;;;;;;1.05;0.90;;;19.90;60.40;;;;;;5093446;28;20657;-58
2023/04/14 01:21:48;;;;;;;1.63;0.98;;;19.90;60.50;;;;;;5070740;28;20201;-58
2023/04/14 01:24:38;;;;;;;1.95;1.10;;;19.90;60.40;;;;;;5079954;28;20873;-58
2023/04/14 01:27:20;;;;;;;1.15;0.80;;;19.90;60.40;;;;;;5073313;28;20286;-58
2023/04/14 01:30:04;;;;;;;1.83;0.75;;;20.00;60.40;;;;;;5090255;28;20571;-58
2023/04/14 01:32:41;;;;;;;0.73;0.73;;;20.00;60.30;;;;;;5073392;28;20624;-58
2023/04/14 01:35:19;;;;;;;1.40;0.85;;;20.00;60.30;;;;;;5093946;28;20657;-58
2023/04/14 01:37:53;;;;;;;1.30;1.05;;;20.00;60.30;;;;;;5093208;28;20829;-58
2023/04/14 01:40:26;;;;;;;2.65;1.00;;;20.00;60.50;;;;;;5073430;28;20214;-57
2023/04/14 01:43:03;;;;;;;1.38;0.90;;;20.00;61.20;;;;;;5090284;28;20222;-58
2023/04/14 01:45:39;;;;;;;1.13;0.85;;;20.10;60.50;;;;;;5093889;28;20673;-58
2023/04/14 01:48:13;;;;;;;1.20;0.77;;;20.10;61.10;;;;;;5076415;28;20198;-58
2023/04/14 01:50:44;;;;;;;1.27;0.82;;;20.10;61.30;;;;;;5076226;28;20303;-58
2023/04/14 01:53:18;;;;;;;1.92;1.00;;;20.10;61.10;;;;;;5075089;28;20701;-58
2023/04/14 01:55:52;;;;;;;1.38;0.90;;;20.20;61.00;;;;;;5084519;28;20206;-58
2023/04/14 01:58:24;;;;;;;1.67;1.00;;;20.20;61.00;;;;;;5075950;28;20186;-58
2023/04/14 02:00:55;;;;;;;1.77;1.10;;;20.20;60.90;;;;;;5078490;28;20587;-58
2023/04/14 02:03:28;;;;;;;1.95;1.00;;;20.20;60.80;;;;;;5075320;28;20612;-58
2023/04/14 02:05:59;;;;;;;0.88;0.70;;;20.30;60.80;;;;;;5073269;28;20207;-58
2023/04/14 02:08:31;;;;;;;1.30;0.93;;;20.30;60.70;;;;;;5076480;28;20186;-58
2023/04/14 02:11:03;;;;;;;1.15;0.93;;;20.30;60.60;;;;;;5092830;28;20194;-58
2023/04/14 02:13:35;;;;;;;2.55;1.02;;;20.30;60.50;;;;;;5090198;28;20219;-58
2023/04/14 02:16:06;;;;;;;1.95;1.00;;;20.40;60.50;;;;;;5090974;28;20680;-59
2023/04/14 02:18:40;;;;;;;2.00;1.05;;;20.40;60.50;;;;;;5092997;28;20194;-58
2023/04/14 02:21:12;;;;;;;2.95;1.02;;;20.40;60.40;;;;;;5087627;28;20202;-58
2023/04/14 02:23:42;;;;;;;2.45;1.08;;;20.40;60.40;;;;;;5078114;28;20256;-59
2023/04/14 02:26:16;;;;;;;1.30;1.02;;;20.40;60.30;;;;;;5093742;28;20195;-58
2023/04/14 02:28:55;;;;;;;1.13;1.02;;;20.50;60.40;;;;;;5093401;28;20190;-58
2023/04/14 02:31:28;;;;;;;1.40;0.80;;;20.50;60.30;;;;;;5092865;28;20692;-58
2023/04/14 02:34:05;;;;;;;1.25;1.00;;;20.50;60.20;;;;;;5091387;28;20553;-58
2023/04/14 02:36:43;;;;;;;1.48;0.95;;;20.50;60.10;;;;;;5084945;28;20696;-57
2023/04/14 02:39:19;;;;;;;1.20;1.10;;;20.50;60.10;;;;;;5080151;28;20225;-58
2023/04/14 02:41:55;;;;;;;1.85;0.90;;;20.50;60.00;;;;;;5083518;28;20769;-58
2023/04/14 02:44:28;;;;;;;1.40;0.88;;;20.60;60.00;;;;;;5101042;28;20220;-58
2023/04/14 02:47:06;;;;;;;1.65;1.00;;;20.50;60.00;;;;;;5079157;28;20256;-58
2023/04/14 02:49:40;;;;;;;2.50;1.10;;;20.60;60.00;;;;;;5082914;28;20277;-59
2023/04/14 02:52:13;;;;;;;1.45;0.82;;;20.60;59.90;;;;;;5081471;28;20203;-58
2023/04/14 02:54:45;;;;;;;1.42;0.70;;;20.60;59.90;;;;;;5085895;28;20194;-58
2023/04/14 02:57:17;;;;;;;1.50;0.77;;;20.60;59.90;;;;;;5092060;28;20194;-58
2023/04/14 02:59:49;;;;;;;1.58;1.00;;;20.60;59.80;;;;;;5091980;28;20750;-58
2023/04/14 03:02:20;;;;;;;1.27;1.00;;;20.60;59.80;;;;;;5082174;28;20785;-58
2023/04/14 03:04:53;;;;;;;1.05;0.80;;;20.70;59.80;;;;;;5082684;28;20221;-58
2023/04/14 03:07:25;;;;;;;1.33;0.80;;;20.70;59.80;;;;;;5071953;28;20283;-58
2023/04/14 03:09:56;;;;;;;1.38;0.70;;;20.70;59.80;;;;;;5084260;28;20592;-58
2023/04/14 03:12:29;;;;;;;1.00;0.90;;;20.70;59.70;;;;;;5083601;28;20820;-59
2023/04/14 03:15:02;;;;;;;1.20;0.85;;;20.70;59.70;;;;;;5087917;28;20255;-58
2023/04/14 03:17:34;;;;;;;1.38;0.93;;;20.70;59.70;;;;;;5073471;28;20651;-58
2023/04/14 03:20:08;;;;;;;1.27;0.90;;;20.70;59.60;;;;;;5085074;28;20190;-58
2023/04/14 03:22:40;;;;;;;1.02;0.80;;;20.70;59.60;;;;;;5084208;28;21333;-58
2023/04/14 03:25:11;;;;;;;0.80;0.73;;;20.80;59.60;;;;;;5090125;28;20222;-58
2023/04/14 03:27:44;;;;;;;1.73;0.70;;;20.80;59.60;;;;;;5091640;28;20217;-58
2023/04/14 03:30:17;;;;;;;1.10;0.90;;;20.80;59.50;;;;;;5091478;28;20194;-58
2023/04/14 03:32:51;;;;;;;0.88;0.80;;;20.80;59.50;;;;;;5070972;28;20223;-58
2023/04/14 03:35:24;;;;;;;1.23;0.90;;;20.80;59.50;;;;;;5086501;28;20217;-58
2023/04/14 03:37:58;;;;;;;1.23;0.90;;;20.80;59.40;;;;;;5091048;28;20201;-58
2023/04/14 03:40:31;;;;;;;1.08;0.93;;;20.80;59.40;;;;;;5091349;28;20209;-58
2023/04/14 03:43:02;;;;;;;1.38;0.82;;;20.80;59.30;;;;;;5091189;28;20248;-58
2023/04/14 03:45:33;;;;;;;1.15;0.90;;;20.80;59.40;;;;;;5087309;28;20267;-58
2023/04/14 03:48:06;;;;;;;1.73;0.80;;;20.80;59.30;;;;;;5078131;28;20199;-58
2023/04/14 03:50:42;;;;;;;1.50;0.98;;;20.80;59.30;;;;;;5071673;28;20199;-58
2023/04/14 03:53:14;;;;;;;1.38;0.85;;;20.80;59.30;;;;;;5071399;28;20716;-58
2023/04/14 03:55:46;;;;;;;1.05;0.57;;;20.80;59.30;;;;;;5088117;28;20194;-58
2023/04/14 03:58:18;;;;;;;0.80;0.70;;;20.80;59.30;;;;;;5077250;28;20685;-58
2023/04/14 04:00:49;;;;;;;1.35;0.70;;;20.80;59.20;;;;;;5087675;28;20190;-58
2023/04/14 04:03:21;;;;;;;0.70;0.60;;;20.80;59.20;;;;;;5090940;28;20218;-58
2023/04/14 04:05:55;;;;;;;1.00;0.77;;;20.80;59.20;;;;;;5090875;28;20193;-58
2023/04/14 04:08:27;;;;;;;1.15;0.60;;;20.80;59.20;;;;;;5090486;28;20190;-58
2023/04/14 04:10:58;;;;;;;0.82;0.70;;;20.80;59.10;;;;;;5091049;28;20225;-58
2023/04/14 04:13:30;;;;;;;1.00;0.63;;;20.80;59.00;;;;;;5090956;28;20240;-58
2023/04/14 04:16:02;;;;;;;0.65;0.50;;;20.80;59.00;;;;;;5090333;28;20570;-57
2023/04/14 04:18:34;;;;;;;0.60;0.60;;;20.80;58.90;;;;;;5090238;28;20209;-58
2023/04/14 04:21:07;;;;;;;0.85;0.63;;;20.80;58.90;;;;;;5086603;28;20609;-58
2023/04/14 04:23:42;;;;;;;0.85;0.47;;;20.80;58.80;;;;;;5088808;28;20224;-58
2023/04/14 04:26:12;;;;;;;0.57;0.52;;;20.80;58.80;;;;;;5092066;28;20202;-58
2023/04/14 04:28:44;;;;;;;1.33;0.80;;;20.80;58.70;;;;;;5090996;28;20536;-58
2023/04/14 04:31:16;;;;;;;0.80;0.68;;;20.80;58.80;;;;;;5091017;28;20654;-58
2023/04/14 04:33:48;;;;;;;1.70;0.70;;;20.80;58.80;;;;;;5090317;28;20217;-58
2023/04/14 04:36:22;;;;;;;1.75;0.70;;;20.80;58.80;;;;;;5089823;28;20205;-58
2023/04/14 04:38:52;;;;;;;0.55;0.52;;;20.80;58.80;;;;;;5070337;28;20225;-58
2023/04/14 04:41:27;;;;;;;0.60;0.50;;;20.80;58.90;;;;;;5109099;28;20660;-58
2023/04/14 04:43:58;;;;;;;1.50;0.60;;;20.80;58.90;;;;;;5089495;28;20235;-58
2023/04/14 04:46:47;;;;;;;0.90;0.52;;;20.80;58.80;;;;;;5090534;28;20272;-58
2023/04/14 04:49:18;;;;;;;0.88;0.80;;;20.80;58.70;;;;;;5090699;28;20194;-58
2023/04/14 04:51:51;;;;;;;1.63;0.50;;;20.80;58.70;;;;;;5090241;28;20567;-58
2023/04/14 04:54:22;;;;;;;1.52;0.68;;;20.80;58.60;;;;;;5080439;28;20213;-58
2023/04/14 04:56:52;;;;;;;0.47;0.47;;;20.80;58.60;;;;;;5086402;28;20195;-59
2023/04/14 04:59:23;;;;;;;1.27;0.57;;;20.80;58.60;;;;;;5090242;28;20202;-58
2023/04/14 05:01:54;;;;;;;0.82;0.47;;;20.80;58.60;;;;;;5092110;28;20198;-58
2023/04/14 05:04:24;;;;;;;0.90;0.70;;;20.70;58.50;;;;;;5075877;28;20227;-58
2023/04/14 05:06:57;;;;;;;0.57;0.50;;;20.80;58.50;;;;;;5074781;28;20202;-58
2023/04/14 05:09:27;;;;;;;0.40;0.40;;;20.70;58.50;;;;;;5075723;28;20213;-58
2023/04/14 05:11:58;;;;;;;0.75;0.55;;;20.70;58.50;;;;;;5094305;28;20202;-58
2023/04/14 05:14:29;;;;;;;0.80;0.50;;;20.70;58.50;;;;;;5089753;28;20222;-59
2023/04/14 05:16:59;;;;;;;0.52;0.52;;;20.70;58.50;;;;;;5090894;28;20198;-59
2023/04/14 05:19:30;;;;;;;0.80;0.50;;;20.70;58.60;;;;;;5075566;28;20249;-58
2023/04/14 05:22:02;;;;;;;0.40;0.40;;;20.70;58.50;;;;;;5093227;28;20248;-58
2023/04/14 05:24:33;;;;;;;1.13;0.75;;;20.70;58.50;;;;;;5077971;28;20215;-58
2023/04/14 05:27:04;;;;;;;1.25;0.50;;;20.70;58.50;;;;;;5094793;28;20650;-58
2023/04/14 05:29:35;;;;;;;0.88;0.50;;;20.70;58.40;;;;;;5094645;28;20195;-58
2023/04/14 05:32:06;;;;;;;0.43;0.40;;;20.70;58.40;;;;;;5114206;28;20216;-57
2023/04/14 05:34:36;;;;;;;1.38;0.50;;;20.70;59.00;;;;;;5113944;28;20564;-58
2023/04/14 05:37:09;;;;;;;0.65;0.50;;;20.70;58.40;;;;;;5113125;28;20201;-58
2023/04/14 05:39:39;;;;;;;1.83;0.77;;;20.70;58.40;;;;;;5114435;28;20259;-58
2023/04/14 05:42:10;;;;;;;0.57;0.40;;;20.70;58.40;;;;;;5085781;28;20186;-58
2023/04/14 05:44:41;;;;;;;1.13;0.70;;;20.70;58.40;;;;;;5093005;28;20244;-58
2023/04/14 05:47:11;;;;;;;1.35;0.77;;;20.70;58.40;;;;;;5093175;28;20658;-59
2023/04/14 05:49:42;;;;;;;0.75;0.60;;;20.70;58.40;;;;;;5092857;28;20198;-58
2023/04/14 05:52:14;;;;;;;1.15;0.90;;;20.60;58.40;;;;;;5073171;28;20195;-58
2023/04/14 05:54:45;;;;;;;1.60;1.15;;;20.70;58.40;;;;;;5077319;28;20220;-58
2023/04/14 05:57:16;;;;;;;1.75;0.98;;;20.70;58.30;;;;;;5082161;28;20604;-58
2023/04/14 05:59:46;;;;;;;0.90;0.80;;;20.70;58.40;;;;;;5093344;28;20284;-59
2023/04/14 06:02:17;;;;;;;1.90;0.98;;;20.70;58.40;;;;;;5079101;28;20195;-58
2023/04/14 06:04:48;;;;;;;1.95;1.00;;;20.70;58.40;;;;;;5074687;28;20710;-58
2023/04/14 06:07:20;;;;;;;1.75;1.20;;;20.60;58.30;;;;;;5079866;28;20209;-58
2023/04/14 06:09:51;;;;;;;1.38;1.13;;;20.60;58.30;;;;;;5093315;28;20190;-58
2023/04/14 06:12:21;;;;;;;1.42;0.98;;;20.60;58.30;;;;;;5092909;28;20194;-59
2023/04/14 06:14:52;;;;;;;1.90;0.95;;;20.60;58.30;;;;;;5092787;28;20286;-58
2023/04/14 06:17:23;;;;;;;1.52;1.02;;;20.60;58.30;;;;;;5072898;28;20704;-58
2023/04/14 06:19:53;;;;;;;1.67;1.05;;;20.60;58.30;;;;;;5074263;28;20650;-58
2023/04/14 06:22:28;;;;;;;2.30;1.17;;;20.60;58.30;;;;;;5090977;28;20198;-58
2023/04/14 06:24:58;;;;;;;1.27;1.00;;;20.60;58.20;;;;;;5088623;28;20217;-59
2023/04/14 06:27:29;;;;;;;1.63;1.20;;;20.50;58.20;;;;;;5083606;28;20278;-58
2023/04/14 06:30:01;;;;;;;1.58;1.20;;;20.50;58.20;;;;;;5073841;28;20195;-58
2023/04/14 06:32:31;;;;;;;2.00;1.25;;;20.50;58.20;;;;;;5092383;28;20257;-58
2023/04/14 06:35:03;;;;;;;1.52;1.13;;;20.60;58.20;;;;;;5093332;28;20198;-58
2023/04/14 06:37:36;;;;;;;1.10;0.98;;;20.50;58.20;;;;;;5092682;28;20200;-58
2023/04/14 06:40:07;;;;;;;1.58;1.33;;;20.50;58.20;;;;;;5093166;28;20215;-58
2023/04/14 06:42:38;;;;;;;1.20;1.10;;;20.50;58.20;;;;;;5072073;28;20687;-59
2023/04/14 06:45:09;;;;;;;1.48;1.10;;;20.50;58.20;;;;;;5079834;28;20225;-58
2023/04/14 06:47:40;;;;;;;1.08;0.90;;;20.50;58.20;;;;;;5083371;28;20187;-58
2023/04/14 06:50:11;;;;;;;2.10;1.20;;;20.50;58.20;;;;;;5074252;28;20203;-58
2023/04/14 06:52:43;;;;;;;1.08;0.98;;;20.50;58.20;;;;;;5092349;28;20248;-58
2023/04/14 06:55:14;;;;;;;1.15;1.00;;;20.50;58.20;;;;;;5092302;28;20213;-58
2023/04/14 06:57:45;;;;;;;1.13;1.00;;;20.50;58.20;;;;;;5093151;28;20200;-58
2023/04/14 07:00:16;;;;;;;2.65;1.25;;;20.50;58.20;;;;;;5092314;28;20662;-58
2023/04/14 07:02:47;;;;;;;2.35;1.48;;;20.50;58.10;;;;;;5092395;28;20214;-58
2023/04/14 07:05:18;;;;;;;1.20;1.10;;;20.50;58.10;;;;;;5092168;28;20229;-58
2023/04/14 07:07:51;;;;;;;1.98;1.17;;;20.50;58.10;;;;;;5092871;28;20230;-58
2023/04/14 07:10:22;;;;;;;1.55;1.13;;;20.50;58.20;;;;;;5091680;28;20281;-58
2023/04/14 07:12:52;;;;;;;1.10;0.95;;;20.50;58.10;;;;;;5092450;28;20210;-58
2023/04/14 07:15:23;;;;;;;1.45;1.20;;;20.40;58.10;;;;;;5091640;28;20190;-58
2023/04/14 07:17:53;;;;;;;1.88;1.15;;;20.50;58.20;;;;;;5113132;28;20219;-58
2023/04/14 07:20:24;;;;;;;1.55;1.40;;;20.50;58.20;;;;;;5112483;28;20657;-58
2023/04/14 07:22:57;;;;;;;1.30;1.20;;;20.40;58.20;;;;;;5107072;28;20214;-58
2023/04/14 07:25:27;;;;;;;1.42;1.15;;;20.50;58.20;;;;;;5092393;28;20232;-58
2023/04/14 07:27:58;;;;;;;1.98;1.20;;;20.40;58.20;;;;;;5092001;28;20194;-58
2023/04/14 07:30:29;;;;;;;1.55;1.23;;;20.40;58.20;;;;;;5091878;28;20194;-58
2023/04/14 07:32:59;;;;;;;1.55;1.30;;;20.40;58.20;;;;;;5091462;28;20210;-58
2023/04/14 07:35:30;;;;;;;1.85;1.33;;;20.40;58.10;;;;;;5091322;28;20246;-58
2023/04/14 07:38:03;;;;;;;1.63;1.27;;;20.40;58.20;;;;;;5089171;28;20198;-58
2023/04/14 07:40:33;;;;;;;1.40;1.30;;;20.40;58.20;;;;;;5076098;28;20210;-58
2023/04/14 07:43:07;;;;;;;1.55;1.30;;;20.40;58.10;;;;;;5091984;28;20218;-58
2023/04/14 07:45:38;;;;;;;1.52;1.38;;;20.40;58.20;;;;;;5090880;28;20221;-58
2023/04/14 07:48:09;;;;;;;1.75;1.40;;;20.40;58.10;;;;;;5071010;28;20281;-59
2023/04/14 07:50:39;;;;;;;1.98;1.17;;;20.30;58.10;;;;;;5080652;28;20202;-58
2023/04/14 07:53:12;;;;;;;1.27;1.17;;;20.30;58.10;;;;;;5091768;28;20256;-58
2023/04/14 07:55:42;;;;;;;1.55;1.20;;;20.30;58.00;;;;;;5091695;28;20194;-58
2023/04/14 07:58:13;;;;;;;1.77;1.23;;;20.30;58.10;;;;;;5083375;28;20191;-58
2023/04/14 08:00:44;;;;;;;1.75;1.35;;;20.30;58.10;;;;;;5071799;28;20210;-58
2023/04/14 08:03:15;;;;;;;1.40;1.15;;;20.30;58.10;;;;;;5071748;28;20238;-58
2023/04/14 08:05:46;;;;;;;2.20;1.33;;;20.30;58.10;;;;;;5071672;28;20666;-58
2023/04/14 08:08:18;;;;;;;1.55;1.35;;;20.30;58.10;;;;;;5071475;28;20584;-58
2023/04/14 08:10:49;;;;;;;1.33;1.20;;;20.30;58.10;;;;;;5084546;28;20658;-58
2023/04/14 08:13:20;;;;;;;1.70;1.40;;;20.20;58.00;;;;;;5091210;28;20267;-58
2023/04/14 08:15:50;;;;;;;1.33;1.00;;;20.30;58.10;;;;;;5090948;28;20199;-58
2023/04/14 08:18:21;;;;;;;2.50;1.60;;;20.20;58.10;;;;;;5091054;28;20246;-58
2023/04/14 08:20:52;;;;;;;1.35;1.08;;;20.20;58.10;;;;;;5091231;28;20198;-58
2023/04/14 08:23:24;;;;;;;1.83;1.10;;;20.20;58.10;;;;;;5072286;28;20218;-58
2023/04/14 08:25:56;;;;;;;1.23;1.00;;;20.20;58.10;;;;;;5071435;28;20232;-58
2023/04/14 08:28:26;;;;;;;1.67;1.15;;;20.20;58.10;;;;;;5070971;28;20225;-58
2023/04/14 08:30:57;;;;;;;1.52;1.10;;;20.20;58.10;;;;;;5070743;28;21380;-58
2023/04/14 08:33:27;;;;;;;1.20;1.00;;;20.20;58.00;;;;;;5070465;28;20218;-58
2023/04/14 08:35:58;;;;;;;1.63;1.13;;;20.20;58.00;;;;;;5073542;28;20205;-58
2023/04/14 08:38:31;;;;;;;2.17;1.20;;;20.20;58.00;;;;;;5091406;28;20198;-58
2023/04/14 08:41:05;;;;;;;2.70;1.35;;;20.20;58.00;;;;;;5089605;28;20255;-58
2023/04/14 08:43:36;;;;;;;1.25;0.90;;;20.20;58.10;;;;;;5075909;28;20214;-58
2023/04/14 08:46:07;;;;;;;1.83;1.23;;;20.10;58.00;;;;;;5077293;28;20229;-58
2023/04/14 08:48:39;;;;;;;0.90;0.77;;;20.10;58.00;;;;;;5071054;28;20194;-58
2023/04/14 08:51:20;;;;;;;1.73;1.38;;;20.10;58.00;;;;;;5070306;28;20202;-58
2023/04/14 08:53:54;;;;;;;1.27;1.17;;;20.10;58.00;;;;;;5070475;28;20280;-58
2023/04/14 08:56:31;;;;;;;1.15;1.05;;;20.10;58.00;;;;;;5071029;28;20194;-58
2023/04/14 08:59:02;;;;;;;1.88;1.20;;;20.10;58.00;;;;;;5071487;28;20217;-58
2023/04/14 09:01:34;;;;;;;1.10;1.00;;;20.10;58.00;;;;;;5071053;28;20251;-58
2023/04/14 09:04:05;;;;;;;1.27;0.90;;;20.10;58.00;;;;;;5070561;28;20223;-58
2023/04/14 09:06:36;;;;;;;1.80;1.30;;;20.10;58.00;;;;;;5072200;28;20229;-58
2023/04/14 09:09:09;;;;;;;1.90;1.13;;;20.10;58.10;;;;;;5070917;28;20199;-58
2023/04/14 09:11:41;;;;;;;1.25;1.00;;;20.10;58.10;;;;;;5080928;28;20222;-58
2023/04/14 09:14:12;;;;;;;1.90;1.00;;;20.00;58.00;;;;;;5070685;28;20218;-58
2023/04/14 09:16:43;;;;;;;1.20;1.10;;;20.10;58.00;;;;;;5085304;28;20198;-58
2023/04/14 09:19:14;;;;;;;1.20;1.10;;;20.00;58.10;;;;;;5090601;28;20198;-58
2023/04/14 09:21:44;;;;;;;1.20;1.10;;;20.00;58.00;;;;;;5090793;28;20190;-58
2023/04/14 09:24:22;;;;;;;1.05;0.93;;;20.00;58.10;;;;;;5082148;28;20206;-58
2023/04/14 09:26:53;;;;;;;0.95;0.77;;;20.00;58.10;;;;;;5082640;28;20218;-58
2023/04/14 09:29:24;;;;;;;1.42;1.00;;;20.00;58.10;;;;;;5091056;28;20198;-58
2023/04/14 09:31:54;;;;;;;1.42;1.00;;;20.00;58.00;;;;;;5090649;28;20194;-58
2023/04/14 09:34:25;;;;;;;0.88;0.77;;;20.00;58.00;;;;;;5073174;28;20280;-59
2023/04/14 09:37:06;;;;;;;1.42;1.17;;;20.00;58.00;;;;;;5081851;28;20194;-58
2023/04/14 09:39:48;;;;;;;1.60;0.98;;;20.00;58.10;;;;;;5090356;28;20651;-58
2023/04/14 09:42:20;;;;;;;1.85;1.00;;;20.00;58.10;;;;;;5090228;28;20548;-58
2023/04/14 09:44:57;;;;;;;2.92;1.73;;;19.90;57.90;;;;;;5090222;28;20206;-58
2023/04/14 09:47:28;;;;;;;4.45;2.17;;;19.90;58.30;;;;;;5087269;28;20250;-58
2023/04/14 09:50:02;;;;;;;2.05;1.40;;;19.90;58.70;;;;;;5093920;28;20198;-58
2023/04/14 09:52:43;;;;;;;1.80;1.23;;;19.90;58.50;;;;;;5093816;28;20586;-58
2023/04/14 09:55:16;;;;;;;2.17;1.30;;;19.90;58.40;;;;;;5091134;28;20790;-58
2023/04/14 09:57:50;;;;;;;2.72;1.52;;;20.00;58.30;;;;;;5093562;28;20646;-58
2023/04/14 10:00:25;;;;;;;2.40;1.42;;;20.00;58.30;;;;;;5092130;28;20202;-58
2023/04/14 10:02:59;;;;;;;2.70;1.63;;;19.90;58.20;;;;;;5110848;28;20224;-58
2023/04/14 10:05:30;;;;;;;1.83;1.35;;;19.90;58.20;;;;;;5113898;28;20277;-58
2023/04/14 10:08:04;;;;;;;2.17;1.42;;;19.90;58.30;;;;;;5113753;28;20190;-58
2023/04/14 10:10:37;;;;;;;1.90;1.50;;;19.90;58.30;;;;;;5113712;28;20286;-58
2023/04/14 10:13:08;;;;;;;3.45;1.67;;;19.90;58.30;;;;;;5113555;28;20217;-58
2023/04/14 10:15:38;;;;;;;2.22;1.27;;;19.90;58.20;;;;;;5087483;28;20214;-58
2023/04/14 10:18:09;;;;;;;1.55;1.10;;;19.90;58.20;;;;;;5092248;28;20194;-58
2023/04/14 10:20:40;;;;;;;2.28;1.40;;;19.90;58.30;;;;;;5092320;28;20237;-58
2023/04/14 10:23:11;;;;;;;1.95;1.33;;;19.90;58.20;;;;;;5092657;28;20210;-58
2023/04/14 10:25:45;;;;;;;1.80;1.40;;;19.90;58.30;;;;;;5092573;28;20773;-58
2023/04/14 10:28:16;;;;;;;1.95;1.30;;;19.80;58.20;;;;;;5092798;28;20671;-58
2023/04/14 10:30:48;;;;;;;1.73;1.10;;;19.80;58.30;;;;;;5093369;28;20190;-59
2023/04/14 10:33:19;;;;;;;2.83;1.35;;;19.80;58.20;;;;;;5083094;28;20215;-58
2023/04/14 10:35:59;;;;;;;3.08;1.33;;;19.80;58.20;;;;;;5073566;28;20203;-58
2023/04/14 10:38:46;;;;;;;1.83;1.58;;;19.80;58.20;;;;;;5091793;28;20186;-58
2023/04/14 10:41:18;;;;;;;2.67;1.48;;;19.80;58.20;;;;;;5094652;28;20194;-59
2023/04/14 10:43:49;;;;;;;2.53;1.23;;;19.80;58.20;;;;;;5106789;28;20218;-58
2023/04/14 10:46:20;;;;;;;2.67;1.27;;;19.80;58.20;;;;;;5083544;28;20275;-58
2023/04/14 10:48:53;;;;;;;2.10;1.40;;;19.80;58.20;;;;;;5093374;28;20285;-59
2023/04/14 10:51:36;;;;;;;2.15;1.30;;;19.80;58.20;;;;;;5091860;28;20241;-58
2023/04/14 10:54:18;;;;;;;1.90;1.40;;;19.80;58.20;;;;;;5092246;28;20240;-59
2023/04/14 10:57:14;;;;;;;1.63;1.40;;;19.80;58.20;;;;;;5091977;28;20195;-58
2023/04/14 10:59:46;;;;;;;1.80;1.10;;;19.80;58.20;;;;;;5091722;28;20209;-58
2023/04/14 11:02:28;;;;;;;1.58;1.20;;;19.80;58.20;;;;;;5094439;28;20186;-58
2023/04/14 11:05:04;;;;;;;2.08;1.30;;;19.70;58.20;;;;;;5113177;27;20198;-58
2023/04/14 11:07:39;;;;;;;1.83;1.30;;;19.70;58.20;;;;;;5111439;28;20640;-59
2023/04/14 11:10:31;;;;;;;1.38;1.20;;;19.70;58.20;;;;;;5112515;28;20799;-58
2023/04/14 11:13:08;;;;;;;1.50;1.30;;;19.70;58.20;;;;;;5111803;28;20213;-58
2023/04/14 11:15:52;;;;;;;1.83;1.30;;;19.70;58.20;;;;;;5100400;28;20202;-58
2023/04/14 11:18:33;;;;;;;1.52;1.17;;;19.70;58.20;;;;;;5090275;28;20194;-58
2023/04/14 11:21:08;;;;;;;2.05;1.10;;;19.70;58.20;;;;;;5073179;28;20650;-59
2023/04/14 11:23:39;;;;;;;1.50;1.33;;;19.70;58.20;;;;;;5091266;28;20213;-58
2023/04/14 11:26:11;;;;;;;2.83;1.40;;;19.70;58.20;;;;;;5079155;28;20268;-58
2023/04/14 11:28:45;;;;;;;1.63;1.30;;;19.70;58.20;;;;;;5092481;28;20547;-58
2023/04/14 11:31:17;;;;;;;1.80;1.38;;;19.70;58.20;;;;;;5091128;28;20198;-58
2023/04/14 11:33:48;;;;;;;1.98;1.30;;;19.70;58.20;;;;;;5111548;28;20213;-59
2023/04/14 11:36:19;;;;;;;1.98;1.35;;;19.70;58.20;;;;;;5111853;28;20607;-58
2023/04/14 11:38:49;;;;;;;1.58;1.48;;;19.60;58.10;;;;;;5098276;28;20595;-58
2023/04/14 11:41:20;;;;;;;1.52;1.27;;;19.60;58.10;;;;;;5091388;28;20190;-58
2023/04/14 11:43:53;;;;;;;1.90;1.30;;;19.60;58.10;;;;;;5071882;28;20214;-58
2023/04/14 11:46:24;;;;;;;2.55;1.30;;;19.60;58.10;;;;;;5071309;28;20230;-59
2023/04/14 11:48:57;;;;;;;1.55;1.05;;;19.60;58.20;;;;;;5111470;28;20246;-59
2023/04/14 11:51:34;;;;;;;1.42;1.20;;;19.60;58.20;;;;;;5094637;28;20209;-58
2023/04/14 11:54:05;;;;;;;1.55;1.45;;;19.60;58.10;;;;;;5111234;28;20604;-58
2023/04/14 11:56:36;;;;;;;2.13;1.30;;;19.60;58.10;;;;;;5111041;28;20208;-58
2023/04/14 11:59:09;;;;;;;1.90;1.25;;;19.60;58.10;;;;;;5111654;28;20216;-58
2023/04/14 12:01:40;;;;;;;1.33;1.20;;;19.60;58.10;;;;;;5099488;28;20190;-58
2023/04/14 12:04:11;;;;;;;1.88;1.30;;;19.60;58.10;;;;;;5090247;28;20351;-59
2023/04/14 12:06:42;;;;;;;2.40;1.38;;;19.60;58.10;;;;;;5091333;28;20644;-58
2023/04/14 12:09:13;;;;;;;1.63;1.10;;;19.60;58.10;;;;;;5090767;28;20721;-58
2023/04/14 12:11:43;;;;;;;3.25;1.73;;;19.60;58.10;;;;;;5090881;28;20539;-58
2023/04/14 12:14:16;;;;;;;1.77;1.05;;;19.60;58.10;;;;;;5091217;28;20217;-58
2023/04/14 12:16:46;;;;;;;1.33;1.00;;;19.60;58.10;;;;;;5090924;28;20242;-58
2023/04/14 12:19:17;;;;;;;1.65;1.33;;;19.60;58.10;;;;;;5091152;28;20202;-58
2023/04/14 12:21:54;;;;;;;1.15;0.90;;;19.50;58.10;;;;;;5091239;28;20201;-58
2023/04/14 12:24:24;;;;;;;1.90;1.20;;;19.50;58.10;;;;;;5091215;28;20209;-58
2023/04/14 12:26:57;;;;;;;1.63;1.23;;;19.50;58.10;;;;;;5091107;28;20255;-58
2023/04/14 12:29:29;;;;;;;1.58;1.27;;;19.50;58.10;;;;;;5090756;28;20194;-58
2023/04/14 12:32:00;;;;;;;1.45;1.00;;;19.50;58.10;;;;;;5090485;28;20195;-58
2023/04/14 12:34:31;;;;;;;1.80;1.15;;;19.50;58.10;;;;;;5090317;28;20224;-59
2023/04/14 12:37:07;;;;;;;1.63;1.30;;;19.50;58.10;;;;;;5090452;28;20289;-59
2023/04/14 12:39:52;;;;;;;1.52;1.30;;;19.50;58.10;;;;;;5090422;28;20212;-59
2023/04/14 12:42:23;;;;;;;1.65;1.30;;;19.50;58.10;;;;;;5095844;28;20189;-58
2023/04/14 12:45:00;;;;;;;1.52;1.20;;;19.50;58.10;;;;;;5110270;28;20267;-58
2023/04/14 12:47:31;;;;;;;1.30;1.20;;;19.50;58.10;;;;;;5076454;28;20221;-59
2023/04/14 12:50:03;;;;;;;2.00;1.30;;;19.50;58.10;;;;;;5086413;28;20231;-58
2023/04/14 12:52:38;;;;;;;1.60;1.20;;;19.50;58.10;;;;;;5090514;28;20560;-59
2023/04/14 12:55:20;;;;;;;1.67;1.30;;;19.50;58.10;;;;;;5090597;28;20193;-59
2023/04/14 12:57:53;;;;;;;1.50;1.00;;;19.40;58.00;;;;;;5090698;28;20787;-58
2023/04/14 13:00:27;;;;;;;2.03;1.40;;;19.40;58.00;;;;;;5088891;28;20280;-59
2023/04/14 13:02:58;;;;;;;1.30;1.20;;;19.40;58.00;;;;;;5087544;28;20716;-59
2023/04/14 13:05:29;;;;;;;1.58;1.10;;;19.40;58.00;;;;;;5110446;28;20200;-59
2023/04/14 13:07:59;;;;;;;1.55;1.20;;;19.40;58.00;;;;;;5111082;28;20221;-58
2023/04/14 13:10:30;;;;;;;1.52;1.40;;;19.40;58.10;;;;;;5110375;28;20213;-58
2023/04/14 13:13:00;;;;;;;1.50;1.20;;;19.40;58.10;;;;;;5109692;28;20213;-59
2023/04/14 13:15:33;;;;;;;2.38;1.42;;;19.40;58.10;;;;;;5101189;28;20198;-59